sensor_id;sensor_type;location;lat;lon;timestamp;P1;durP1;ratioP1;P2;durP2;ratioP2
52724;SDS011;38621;52.830;6.914;2022-09-28T00:01:49;5.35;;;4.32;;
52724;SDS011;38621;52.830;6.914;2022-09-28T00:04:15;6.65;;;4.20;;
52724;SDS011;38621;52.830;6.914;2022-09-28T00:06:41;5.68;;;3.90;;
52724;SDS011;38621;52.830;6.914;2022-09-28T00:09:07;6.03;;;4.25;;
52724;SDS011;38621;52.830;6.914;2022-09-28T00:11:33;6.35;;;3.78;;
52724;SDS011;38621;52.830;6.914;2022-09-28T00:14:00;4.68;;;3.78;;
52724;SDS011;38621;52.830;6.914;2022-09-28T00:16:31;5.70;;;4.28;;
52724;SDS011;38621;52.830;6.914;2022-09-28T00:18:59;6.80;;;4.45;;
52724;SDS011;38621;52.830;6.914;2022-09-28T00:21:28;6.60;;;4.20;;
52724;SDS011;38621;52.830;6.914;2022-09-28T00:23:56;6.32;;;4.50;;
52724;SDS011;38621;52.830;6.914;2022-09-28T00:29:16;6.40;;;4.50;;
52724;SDS011;38621;52.830;6.914;2022-09-28T00:31:51;7.32;;;4.35;;
52724;SDS011;38621;52.830;6.914;2022-09-28T00:34:18;6.68;;;4.50;;
52724;SDS011;38621;52.830;6.914;2022-09-28T00:36:44;7.13;;;4.45;;
52724;SDS011;38621;52.830;6.914;2022-09-28T00:39:11;6.43;;;4.72;;
52724;SDS011;38621;52.830;6.914;2022-09-28T00:41:38;9.02;;;5.03;;
52724;SDS011;38621;52.830;6.914;2022-09-28T00:46:49;8.05;;;5.15;;
52724;SDS011;38621;52.830;6.914;2022-09-28T00:49:34;8.98;;;5.00;;
52724;SDS011;38621;52.830;6.914;2022-09-28T00:52:02;8.40;;;5.22;;
52724;SDS011;38621;52.830;6.914;2022-09-28T00:54:31;7.32;;;5.18;;
52724;SDS011;38621;52.830;6.914;2022-09-28T00:56:56;7.40;;;5.07;;
52724;SDS011;38621;52.830;6.914;2022-09-28T00:59:23;7.78;;;5.03;;
52724;SDS011;38621;52.830;6.914;2022-09-28T01:01:50;7.25;;;5.18;;
52724;SDS011;38621;52.830;6.914;2022-09-28T01:04:16;6.95;;;4.85;;
52724;SDS011;38621;52.830;6.914;2022-09-28T01:06:42;8.70;;;5.60;;
52724;SDS011;38621;52.830;6.914;2022-09-28T01:09:09;6.97;;;5.00;;
52724;SDS011;38621;52.830;6.914;2022-09-28T01:11:37;8.48;;;5.82;;
52724;SDS011;38621;52.830;6.914;2022-09-28T01:14:05;7.20;;;4.93;;
52724;SDS011;38621;52.830;6.914;2022-09-28T01:22:07;6.75;;;4.85;;
52724;SDS011;38621;52.830;6.914;2022-09-28T01:24:46;7.93;;;5.10;;
52724;SDS011;38621;52.830;6.914;2022-09-28T01:27:23;7.75;;;5.03;;
52724;SDS011;38621;52.830;6.914;2022-09-28T01:32:37;9.80;;;5.47;;
52724;SDS011;38621;52.830;6.914;2022-09-28T01:35:08;7.90;;;5.53;;
52724;SDS011;38621;52.830;6.914;2022-09-28T01:37:41;9.88;;;5.00;;
52724;SDS011;38621;52.830;6.914;2022-09-28T01:40:16;7.35;;;4.57;;
52724;SDS011;38621;52.830;6.914;2022-09-28T01:42:45;7.57;;;5.38;;
52724;SDS011;38621;52.830;6.914;2022-09-28T01:45:17;7.50;;;4.53;;
52724;SDS011;38621;52.830;6.914;2022-09-28T01:47:53;6.72;;;4.28;;
52724;SDS011;38621;52.830;6.914;2022-09-28T01:50:23;7.45;;;4.38;;
52724;SDS011;38621;52.830;6.914;2022-09-28T01:52:58;5.35;;;3.85;;
52724;SDS011;38621;52.830;6.914;2022-09-28T01:55:44;7.72;;;5.05;;
52724;SDS011;38621;52.830;6.914;2022-09-28T01:58:18;7.20;;;4.85;;
52724;SDS011;38621;52.830;6.914;2022-09-28T02:00:47;8.27;;;5.30;;
52724;SDS011;38621;52.830;6.914;2022-09-28T02:03:18;6.82;;;4.70;;
52724;SDS011;38621;52.830;6.914;2022-09-28T02:06:03;6.10;;;3.70;;
52724;SDS011;38621;52.830;6.914;2022-09-28T02:08:36;5.85;;;4.10;;
52724;SDS011;38621;52.830;6.914;2022-09-28T02:13:43;6.15;;;4.30;;
52724;SDS011;38621;52.830;6.914;2022-09-28T02:19:04;6.60;;;3.90;;
52724;SDS011;38621;52.830;6.914;2022-09-28T02:21:47;5.53;;;3.60;;
52724;SDS011;38621;52.830;6.914;2022-09-28T02:24:23;5.05;;;3.50;;
52724;SDS011;38621;52.830;6.914;2022-09-28T02:26:55;6.15;;;3.95;;
52724;SDS011;38621;52.830;6.914;2022-09-28T02:29:24;4.82;;;3.75;;
52724;SDS011;38621;52.830;6.914;2022-09-28T02:31:50;5.18;;;3.78;;
52724;SDS011;38621;52.830;6.914;2022-09-28T02:34:16;6.18;;;3.63;;
52724;SDS011;38621;52.830;6.914;2022-09-28T02:36:42;5.60;;;4.00;;
52724;SDS011;38621;52.830;6.914;2022-09-28T02:39:15;5.90;;;3.72;;
52724;SDS011;38621;52.830;6.914;2022-09-28T02:44:45;5.07;;;3.20;;
52724;SDS011;38621;52.830;6.914;2022-09-28T02:58:23;8.88;;;2.90;;
52724;SDS011;38621;52.830;6.914;2022-09-28T03:03:47;16.50;;;3.60;;
52724;SDS011;38621;52.830;6.914;2022-09-28T03:06:26;5.55;;;3.00;;
52724;SDS011;38621;52.830;6.914;2022-09-28T03:09:03;12.57;;;3.28;;
52724;SDS011;38621;52.830;6.914;2022-09-28T03:11:37;20.17;;;3.95;;
52724;SDS011;38621;52.830;6.914;2022-09-28T03:14:09;18.48;;;3.83;;
52724;SDS011;38621;52.830;6.914;2022-09-28T03:16:35;12.63;;;3.67;;
52724;SDS011;38621;52.830;6.914;2022-09-28T03:19:01;16.38;;;2.80;;
52724;SDS011;38621;52.830;6.914;2022-09-28T03:21:26;13.38;;;3.20;;
52724;SDS011;38621;52.830;6.914;2022-09-28T03:23:52;23.70;;;3.55;;
52724;SDS011;38621;52.830;6.914;2022-09-28T03:26:18;27.48;;;3.95;;
52724;SDS011;38621;52.830;6.914;2022-09-28T03:28:44;29.13;;;4.75;;
52724;SDS011;38621;52.830;6.914;2022-09-28T03:31:09;38.30;;;4.75;;
52724;SDS011;38621;52.830;6.914;2022-09-28T03:33:35;32.83;;;4.55;;
52724;SDS011;38621;52.830;6.914;2022-09-28T03:36:01;13.68;;;2.83;;
52724;SDS011;38621;52.830;6.914;2022-09-28T03:38:26;11.90;;;3.25;;
52724;SDS011;38621;52.830;6.914;2022-09-28T03:40:56;32.05;;;4.45;;
52724;SDS011;38621;52.830;6.914;2022-09-28T03:43:23;16.85;;;3.53;;
52724;SDS011;38621;52.830;6.914;2022-09-28T03:45:53;8.18;;;2.65;;
52724;SDS011;38621;52.830;6.914;2022-09-28T03:48:24;13.73;;;2.92;;
52724;SDS011;38621;52.830;6.914;2022-09-28T03:50:52;9.27;;;2.45;;
52724;SDS011;38621;52.830;6.914;2022-09-28T03:53:18;30.10;;;5.20;;
52724;SDS011;38621;52.830;6.914;2022-09-28T03:55:44;34.75;;;4.35;;
52724;SDS011;38621;52.830;6.914;2022-09-28T03:58:10;32.65;;;4.78;;
52724;SDS011;38621;52.830;6.914;2022-09-28T04:00:38;7.97;;;2.65;;
52724;SDS011;38621;52.830;6.914;2022-09-28T04:03:04;5.40;;;2.50;;
52724;SDS011;38621;52.830;6.914;2022-09-28T04:05:30;7.57;;;2.88;;
52724;SDS011;38621;52.830;6.914;2022-09-28T04:07:55;31.10;;;4.70;;
52724;SDS011;38621;52.830;6.914;2022-09-28T04:10:24;38.42;;;5.50;;
52724;SDS011;38621;52.830;6.914;2022-09-28T04:12:54;49.13;;;6.82;;
52724;SDS011;38621;52.830;6.914;2022-09-28T04:15:21;73.88;;;8.10;;
52724;SDS011;38621;52.830;6.914;2022-09-28T04:17:47;39.67;;;5.05;;
52724;SDS011;38621;52.830;6.914;2022-09-28T04:20:13;8.77;;;2.70;;
52724;SDS011;38621;52.830;6.914;2022-09-28T04:22:39;2.97;;;2.17;;
52724;SDS011;38621;52.830;6.914;2022-09-28T04:25:05;4.43;;;2.90;;
52724;SDS011;38621;52.830;6.914;2022-09-28T04:27:31;19.00;;;5.18;;
52724;SDS011;38621;52.830;6.914;2022-09-28T04:30:15;39.45;;;6.93;;
52724;SDS011;38621;52.830;6.914;2022-09-28T04:32:41;81.32;;;10.02;;
52724;SDS011;38621;52.830;6.914;2022-09-28T04:35:08;64.40;;;9.13;;
52724;SDS011;38621;52.830;6.914;2022-09-28T04:37:35;47.15;;;8.05;;
52724;SDS011;38621;52.830;6.914;2022-09-28T04:40:00;97.35;;;11.43;;
52724;SDS011;38621;52.830;6.914;2022-09-28T04:42:26;150.13;;;14.60;;
52724;SDS011;38621;52.830;6.914;2022-09-28T04:44:52;91.45;;;12.38;;
52724;SDS011;38621;52.830;6.914;2022-09-28T04:47:17;53.03;;;10.25;;
52724;SDS011;38621;52.830;6.914;2022-09-28T04:49:43;39.45;;;6.60;;
52724;SDS011;38621;52.830;6.914;2022-09-28T04:52:09;34.75;;;6.90;;
52724;SDS011;38621;52.830;6.914;2022-09-28T04:54:34;20.10;;;5.90;;
52724;SDS011;38621;52.830;6.914;2022-09-28T04:57:00;19.38;;;5.53;;
52724;SDS011;38621;52.830;6.914;2022-09-28T04:59:27;28.35;;;6.47;;
52724;SDS011;38621;52.830;6.914;2022-09-28T05:01:53;77.80;;;9.05;;
52724;SDS011;38621;52.830;6.914;2022-09-28T05:04:18;35.08;;;6.45;;
52724;SDS011;38621;52.830;6.914;2022-09-28T05:06:44;67.80;;;10.48;;
52724;SDS011;38621;52.830;6.914;2022-09-28T05:09:10;20.83;;;6.22;;
52724;SDS011;38621;52.830;6.914;2022-09-28T05:11:35;59.80;;;8.70;;
52724;SDS011;38621;52.830;6.914;2022-09-28T05:14:01;43.10;;;8.00;;
52724;SDS011;38621;52.830;6.914;2022-09-28T05:16:27;56.78;;;7.95;;
52724;SDS011;38621;52.830;6.914;2022-09-28T05:18:55;26.33;;;7.65;;
52724;SDS011;38621;52.830;6.914;2022-09-28T05:21:21;67.18;;;8.50;;
52724;SDS011;38621;52.830;6.914;2022-09-28T05:23:49;31.15;;;7.57;;
52724;SDS011;38621;52.830;6.914;2022-09-28T05:26:15;36.13;;;7.03;;
52724;SDS011;38621;52.830;6.914;2022-09-28T05:28:41;36.65;;;7.53;;
52724;SDS011;38621;52.830;6.914;2022-09-28T05:31:08;35.38;;;7.25;;
52724;SDS011;38621;52.830;6.914;2022-09-28T05:33:34;69.20;;;9.43;;
52724;SDS011;38621;52.830;6.914;2022-09-28T05:36:01;107.63;;;13.52;;
52724;SDS011;38621;52.830;6.914;2022-09-28T05:38:27;37.85;;;8.43;;
52724;SDS011;38621;52.830;6.914;2022-09-28T05:40:54;53.42;;;9.45;;
52724;SDS011;38621;52.830;6.914;2022-09-28T05:43:19;102.97;;;12.23;;
52724;SDS011;38621;52.830;6.914;2022-09-28T05:45:46;70.82;;;11.15;;
52724;SDS011;38621;52.830;6.914;2022-09-28T05:48:12;85.47;;;13.80;;
52724;SDS011;38621;52.830;6.914;2022-09-28T05:50:37;46.47;;;8.45;;
52724;SDS011;38621;52.830;6.914;2022-09-28T05:53:04;96.15;;;17.80;;
52724;SDS011;38621;52.830;6.914;2022-09-28T05:55:32;73.57;;;10.98;;
52724;SDS011;38621;52.830;6.914;2022-09-28T05:58:03;70.95;;;11.05;;
52724;SDS011;38621;52.830;6.914;2022-09-28T06:00:30;53.63;;;10.45;;
52724;SDS011;38621;52.830;6.914;2022-09-28T06:02:59;44.65;;;9.23;;
52724;SDS011;38621;52.830;6.914;2022-09-28T06:05:29;104.95;;;14.55;;
52724;SDS011;38621;52.830;6.914;2022-09-28T06:07:59;59.22;;;9.35;;
52724;SDS011;38621;52.830;6.914;2022-09-28T06:10:25;50.55;;;8.32;;
52724;SDS011;38621;52.830;6.914;2022-09-28T06:12:55;67.40;;;11.38;;
52724;SDS011;38621;52.830;6.914;2022-09-28T06:15:22;65.28;;;9.85;;
52724;SDS011;38621;52.830;6.914;2022-09-28T06:18:02;72.63;;;11.18;;
52724;SDS011;38621;52.830;6.914;2022-09-28T06:20:33;59.78;;;10.23;;
52724;SDS011;38621;52.830;6.914;2022-09-28T06:23:01;54.10;;;9.00;;
52724;SDS011;38621;52.830;6.914;2022-09-28T06:25:27;38.78;;;7.60;;
52724;SDS011;38621;52.830;6.914;2022-09-28T06:27:53;59.25;;;9.50;;
52724;SDS011;38621;52.830;6.914;2022-09-28T06:30:23;44.40;;;7.97;;
52724;SDS011;38621;52.830;6.914;2022-09-28T06:32:54;58.28;;;9.15;;
52724;SDS011;38621;52.830;6.914;2022-09-28T06:35:21;44.10;;;8.40;;
52724;SDS011;38621;52.830;6.914;2022-09-28T06:37:49;34.33;;;8.02;;
52724;SDS011;38621;52.830;6.914;2022-09-28T06:40:15;44.65;;;8.52;;
52724;SDS011;38621;52.830;6.914;2022-09-28T06:42:42;42.53;;;8.48;;
52724;SDS011;38621;52.830;6.914;2022-09-28T06:45:08;35.10;;;7.03;;
52724;SDS011;38621;52.830;6.914;2022-09-28T06:47:35;38.05;;;8.07;;
52724;SDS011;38621;52.830;6.914;2022-09-28T06:50:02;32.55;;;8.20;;
52724;SDS011;38621;52.830;6.914;2022-09-28T06:52:35;25.00;;;6.28;;
52724;SDS011;38621;52.830;6.914;2022-09-28T06:55:00;34.83;;;7.60;;
52724;SDS011;38621;52.830;6.914;2022-09-28T06:57:26;40.90;;;8.27;;
52724;SDS011;38621;52.830;6.914;2022-09-28T06:59:51;24.10;;;6.75;;
52724;SDS011;38621;52.830;6.914;2022-09-28T07:02:17;58.38;;;9.43;;
52724;SDS011;38621;52.830;6.914;2022-09-28T07:04:44;50.78;;;8.73;;
52724;SDS011;38621;52.830;6.914;2022-09-28T07:07:09;31.38;;;7.18;;
52724;SDS011;38621;52.830;6.914;2022-09-28T07:09:36;16.45;;;5.07;;
52724;SDS011;38621;52.830;6.914;2022-09-28T07:12:02;29.73;;;7.00;;
52724;SDS011;38621;52.830;6.914;2022-09-28T07:14:34;30.85;;;7.85;;
52724;SDS011;38621;52.830;6.914;2022-09-28T07:17:00;28.10;;;5.75;;
52724;SDS011;38621;52.830;6.914;2022-09-28T07:19:27;33.17;;;7.15;;
52724;SDS011;38621;52.830;6.914;2022-09-28T07:21:53;38.08;;;7.35;;
52724;SDS011;38621;52.830;6.914;2022-09-28T07:24:18;23.88;;;6.55;;
52724;SDS011;38621;52.830;6.914;2022-09-28T07:26:44;21.80;;;6.00;;
52724;SDS011;38621;52.830;6.914;2022-09-28T07:29:10;24.13;;;5.72;;
52724;SDS011;38621;52.830;6.914;2022-09-28T07:31:37;20.15;;;5.53;;
52724;SDS011;38621;52.830;6.914;2022-09-28T07:34:03;18.50;;;6.10;;
52724;SDS011;38621;52.830;6.914;2022-09-28T07:36:29;18.35;;;6.03;;
52724;SDS011;38621;52.830;6.914;2022-09-28T07:38:59;28.83;;;6.05;;
52724;SDS011;38621;52.830;6.914;2022-09-28T07:41:25;30.40;;;7.15;;
52724;SDS011;38621;52.830;6.914;2022-09-28T07:43:57;19.80;;;5.93;;
52724;SDS011;38621;52.830;6.914;2022-09-28T07:46:33;16.13;;;5.80;;
52724;SDS011;38621;52.830;6.914;2022-09-28T07:48:59;11.98;;;5.50;;
52724;SDS011;38621;52.830;6.914;2022-09-28T07:51:25;23.33;;;6.70;;
52724;SDS011;38621;52.830;6.914;2022-09-28T07:53:51;24.20;;;6.93;;
52724;SDS011;38621;52.830;6.914;2022-09-28T07:56:19;17.15;;;5.30;;
52724;SDS011;38621;52.830;6.914;2022-09-28T07:58:45;11.05;;;5.25;;
52724;SDS011;38621;52.830;6.914;2022-09-28T08:01:11;7.57;;;4.43;;
52724;SDS011;38621;52.830;6.914;2022-09-28T08:03:41;7.93;;;4.50;;
52724;SDS011;38621;52.830;6.914;2022-09-28T08:06:12;8.57;;;4.93;;
52724;SDS011;38621;52.830;6.914;2022-09-28T08:08:39;10.02;;;4.68;;
52724;SDS011;38621;52.830;6.914;2022-09-28T08:11:09;9.13;;;5.22;;
52724;SDS011;38621;52.830;6.914;2022-09-28T08:13:36;14.10;;;5.03;;
52724;SDS011;38621;52.830;6.914;2022-09-28T08:16:03;8.98;;;4.90;;
52724;SDS011;38621;52.830;6.914;2022-09-28T08:18:30;10.88;;;4.53;;
52724;SDS011;38621;52.830;6.914;2022-09-28T08:20:56;7.22;;;4.50;;
52724;SDS011;38621;52.830;6.914;2022-09-28T08:23:40;6.28;;;3.67;;
52724;SDS011;38621;52.830;6.914;2022-09-28T08:26:06;9.40;;;5.05;;
52724;SDS011;38621;52.830;6.914;2022-09-28T08:28:32;8.55;;;5.15;;
52724;SDS011;38621;52.830;6.914;2022-09-28T08:30:59;7.55;;;4.00;;
52724;SDS011;38621;52.830;6.914;2022-09-28T08:33:25;7.85;;;4.28;;
52724;SDS011;38621;52.830;6.914;2022-09-28T08:35:55;7.05;;;4.45;;
52724;SDS011;38621;52.830;6.914;2022-09-28T08:38:23;7.03;;;4.32;;
52724;SDS011;38621;52.830;6.914;2022-09-28T08:43:44;8.20;;;4.70;;
52724;SDS011;38621;52.830;6.914;2022-09-28T08:46:13;8.02;;;4.68;;
52724;SDS011;38621;52.830;6.914;2022-09-28T08:48:48;7.07;;;4.60;;
52724;SDS011;38621;52.830;6.914;2022-09-28T08:56:48;9.15;;;5.00;;
52724;SDS011;38621;52.830;6.914;2022-09-28T08:59:19;8.73;;;4.68;;
52724;SDS011;38621;52.830;6.914;2022-09-28T09:01:54;7.95;;;4.38;;
52724;SDS011;38621;52.830;6.914;2022-09-28T09:04:25;11.45;;;5.30;;
52724;SDS011;38621;52.830;6.914;2022-09-28T09:09:59;8.18;;;4.78;;
52724;SDS011;38621;52.830;6.914;2022-09-28T09:12:39;6.60;;;4.32;;
52724;SDS011;38621;52.830;6.914;2022-09-28T09:15:32;6.77;;;4.53;;
52724;SDS011;38621;52.830;6.914;2022-09-28T09:21:01;7.60;;;4.63;;
52724;SDS011;38621;52.830;6.914;2022-09-28T09:23:51;6.60;;;4.00;;
52724;SDS011;38621;52.830;6.914;2022-09-28T09:26:20;6.05;;;4.32;;
52724;SDS011;38621;52.830;6.914;2022-09-28T09:31:42;5.82;;;3.88;;
52724;SDS011;38621;52.830;6.914;2022-09-28T09:46:04;5.82;;;3.47;;
52724;SDS011;38621;52.830;6.914;2022-09-28T09:48:22;5.60;;;3.60;;
52724;SDS011;38621;52.830;6.914;2022-09-28T09:51:02;5.25;;;3.20;;
52724;SDS011;38621;52.830;6.914;2022-09-28T09:58:55;4.72;;;3.00;;
52724;SDS011;38621;52.830;6.914;2022-09-28T10:01:29;6.03;;;3.42;;
52724;SDS011;38621;52.830;6.914;2022-09-28T10:03:58;4.22;;;2.95;;
52724;SDS011;38621;52.830;6.914;2022-09-28T10:06:30;3.78;;;2.78;;
52724;SDS011;38621;52.830;6.914;2022-09-28T10:09:00;4.82;;;3.55;;
52724;SDS011;38621;52.830;6.914;2022-09-28T10:11:47;4.63;;;2.72;;
52724;SDS011;38621;52.830;6.914;2022-09-28T10:14:17;5.25;;;3.00;;
52724;SDS011;38621;52.830;6.914;2022-09-28T10:16:45;4.38;;;3.00;;
52724;SDS011;38621;52.830;6.914;2022-09-28T10:19:12;3.63;;;2.50;;
52724;SDS011;38621;52.830;6.914;2022-09-28T10:21:39;4.20;;;2.63;;
52724;SDS011;38621;52.830;6.914;2022-09-28T10:24:07;4.78;;;3.15;;
52724;SDS011;38621;52.830;6.914;2022-09-28T10:26:43;5.45;;;2.80;;
52724;SDS011;38621;52.830;6.914;2022-09-28T10:29:16;3.72;;;2.53;;
52724;SDS011;38621;52.830;6.914;2022-09-28T10:31:46;4.95;;;2.95;;
52724;SDS011;38621;52.830;6.914;2022-09-28T10:34:14;3.75;;;2.47;;
52724;SDS011;38621;52.830;6.914;2022-09-28T10:36:47;4.90;;;3.13;;
52724;SDS011;38621;52.830;6.914;2022-09-28T10:42:11;4.68;;;2.92;;
52724;SDS011;38621;52.830;6.914;2022-09-28T10:47:43;3.50;;;2.33;;
52724;SDS011;38621;52.830;6.914;2022-09-28T10:50:20;3.40;;;2.00;;
52724;SDS011;38621;52.830;6.914;2022-09-28T10:52:48;3.72;;;2.42;;
52724;SDS011;38621;52.830;6.914;2022-09-28T10:57:45;4.00;;;2.08;;
52724;SDS011;38621;52.830;6.914;2022-09-28T11:00:31;3.72;;;2.17;;
52724;SDS011;38621;52.830;6.914;2022-09-28T11:02:58;4.63;;;2.63;;
52724;SDS011;38621;52.830;6.914;2022-09-28T11:05:24;3.95;;;2.45;;
52724;SDS011;38621;52.830;6.914;2022-09-28T11:07:51;5.03;;;2.90;;
52724;SDS011;38621;52.830;6.914;2022-09-28T11:10:24;4.05;;;2.40;;
52724;SDS011;38621;52.830;6.914;2022-09-28T11:12:52;5.15;;;2.53;;
52724;SDS011;38621;52.830;6.914;2022-09-28T11:15:20;4.15;;;2.67;;
52724;SDS011;38621;52.830;6.914;2022-09-28T11:17:49;4.85;;;2.78;;
52724;SDS011;38621;52.830;6.914;2022-09-28T11:27:45;4.07;;;2.60;;
52724;SDS011;38621;52.830;6.914;2022-09-28T11:33:05;4.20;;;2.45;;
52724;SDS011;38621;52.830;6.914;2022-09-28T11:46:42;2.90;;;1.90;;
52724;SDS011;38621;52.830;6.914;2022-09-28T11:51:55;4.32;;;2.60;;
52724;SDS011;38621;52.830;6.914;2022-09-28T11:54:31;5.18;;;2.60;;
52724;SDS011;38621;52.830;6.914;2022-09-28T11:57:05;4.47;;;2.50;;
52724;SDS011;38621;52.830;6.914;2022-09-28T11:59:51;4.40;;;2.90;;
52724;SDS011;38621;52.830;6.914;2022-09-28T12:02:35;3.53;;;2.55;;
52724;SDS011;38621;52.830;6.914;2022-09-28T12:05:13;4.93;;;2.35;;
52724;SDS011;38621;52.830;6.914;2022-09-28T12:10:59;4.32;;;2.78;;
52724;SDS011;38621;52.830;6.914;2022-09-28T12:13:38;3.40;;;2.28;;
52724;SDS011;38621;52.830;6.914;2022-09-28T12:16:25;3.95;;;2.38;;
52724;SDS011;38621;52.830;6.914;2022-09-28T12:21:33;4.18;;;2.17;;
52724;SDS011;38621;52.830;6.914;2022-09-28T12:24:05;4.88;;;2.63;;
52724;SDS011;38621;52.830;6.914;2022-09-28T12:26:41;3.75;;;2.50;;
52724;SDS011;38621;52.830;6.914;2022-09-28T12:29:15;3.53;;;2.13;;
52724;SDS011;38621;52.830;6.914;2022-09-28T12:31:55;3.63;;;1.85;;
52724;SDS011;38621;52.830;6.914;2022-09-28T12:34:35;3.08;;;1.90;;
52724;SDS011;38621;52.830;6.914;2022-09-28T12:37:12;2.40;;;1.60;;
52724;SDS011;38621;52.830;6.914;2022-09-28T12:40:10;2.40;;;1.40;;
52724;SDS011;38621;52.830;6.914;2022-09-28T12:43:01;2.47;;;1.58;;
52724;SDS011;38621;52.830;6.914;2022-09-28T12:48:53;3.00;;;1.90;;
52724;SDS011;38621;52.830;6.914;2022-09-28T12:51:47;3.70;;;1.80;;
52724;SDS011;38621;52.830;6.914;2022-09-28T12:59:51;2.05;;;1.00;;
52724;SDS011;38621;52.830;6.914;2022-09-28T13:02:34;2.40;;;1.20;;
52724;SDS011;38621;52.830;6.914;2022-09-28T13:10:46;1.85;;;1.20;;
52724;SDS011;38621;52.830;6.914;2022-09-28T13:13:33;2.30;;;1.25;;
52724;SDS011;38621;52.830;6.914;2022-09-28T13:17:09;9.23;;;1.80;;
52724;SDS011;38621;52.830;6.914;2022-09-28T13:19:23;1.95;;;1.00;;
52724;SDS011;38621;52.830;6.914;2022-09-28T13:24:34;1.83;;;1.00;;
52724;SDS011;38621;52.830;6.914;2022-09-28T13:27:07;2.10;;;1.20;;
52724;SDS011;38621;52.830;6.914;2022-09-28T13:29:37;2.67;;;1.23;;
52724;SDS011;38621;52.830;6.914;2022-09-28T13:32:04;3.20;;;1.25;;
52724;SDS011;38621;52.830;6.914;2022-09-28T13:34:32;2.65;;;1.15;;
52724;SDS011;38621;52.830;6.914;2022-09-28T13:37:07;2.00;;;1.08;;
52724;SDS011;38621;52.830;6.914;2022-09-28T13:45:49;1.27;;;0.40;;
52724;SDS011;38621;52.830;6.914;2022-09-28T13:48:22;1.05;;;0.40;;
52724;SDS011;38621;52.830;6.914;2022-09-28T13:51:22;0.68;;;0.35;;
52724;SDS011;38621;52.830;6.914;2022-09-28T13:56:53;0.85;;;0.40;;
52724;SDS011;38621;52.830;6.914;2022-09-28T13:59:28;1.48;;;0.65;;
52724;SDS011;38621;52.830;6.914;2022-09-28T14:12:46;1.60;;;0.80;;
52724;SDS011;38621;52.830;6.914;2022-09-28T14:18:21;1.45;;;0.70;;
52724;SDS011;38621;52.830;6.914;2022-09-28T14:21:04;2.47;;;0.80;;
52724;SDS011;38621;52.830;6.914;2022-09-28T14:26:23;1.63;;;0.90;;
52724;SDS011;38621;52.830;6.914;2022-09-28T14:31:56;1.88;;;0.85;;
52724;SDS011;38621;52.830;6.914;2022-09-28T14:34:29;1.33;;;0.60;;
52724;SDS011;38621;52.830;6.914;2022-09-28T14:36:58;0.95;;;0.50;;
52724;SDS011;38621;52.830;6.914;2022-09-28T14:39:44;0.40;;;0.30;;
52724;SDS011;38621;52.830;6.914;2022-09-28T14:42:29;0.60;;;0.38;;
52724;SDS011;38621;52.830;6.914;2022-09-28T14:50:25;1.20;;;0.63;;
52724;SDS011;38621;52.830;6.914;2022-09-28T14:52:53;1.10;;;0.50;;
52724;SDS011;38621;52.830;6.914;2022-09-28T14:55:33;1.80;;;0.70;;
52724;SDS011;38621;52.830;6.914;2022-09-28T14:58:16;2.47;;;0.60;;
52724;SDS011;38621;52.830;6.914;2022-09-28T15:00:48;1.42;;;0.60;;
52724;SDS011;38621;52.830;6.914;2022-09-28T15:03:16;3.60;;;0.90;;
52724;SDS011;38621;52.830;6.914;2022-09-28T15:05:45;1.65;;;0.50;;
52724;SDS011;38621;52.830;6.914;2022-09-28T15:08:11;2.78;;;0.70;;
52724;SDS011;38621;52.830;6.914;2022-09-28T15:10:38;0.90;;;0.70;;
52724;SDS011;38621;52.830;6.914;2022-09-28T15:13:25;0.80;;;0.40;;
52724;SDS011;38621;52.830;6.914;2022-09-28T15:16:08;1.83;;;0.50;;
52724;SDS011;38621;52.830;6.914;2022-09-28T15:21:39;0.82;;;0.45;;
52724;SDS011;38621;52.830;6.914;2022-09-28T15:24:22;1.02;;;0.52;;
52724;SDS011;38621;52.830;6.914;2022-09-28T15:26:48;0.98;;;0.50;;
52724;SDS011;38621;52.830;6.914;2022-09-28T15:29:17;2.67;;;0.93;;
52724;SDS011;38621;52.830;6.914;2022-09-28T15:31:44;1.67;;;0.73;;
52724;SDS011;38621;52.830;6.914;2022-09-28T15:37:27;1.40;;;0.70;;
52724;SDS011;38621;52.830;6.914;2022-09-28T15:39:57;1.58;;;0.80;;
52724;SDS011;38621;52.830;6.914;2022-09-28T15:42:24;1.30;;;0.50;;
52724;SDS011;38621;52.830;6.914;2022-09-28T15:47:37;0.95;;;0.55;;
52724;SDS011;38621;52.830;6.914;2022-09-28T15:50:05;1.67;;;0.60;;
52724;SDS011;38621;52.830;6.914;2022-09-28T15:52:44;1.52;;;0.70;;
52724;SDS011;38621;52.830;6.914;2022-09-28T15:55:19;1.90;;;0.75;;
52724;SDS011;38621;52.830;6.914;2022-09-28T15:57:49;1.55;;;0.75;;
52724;SDS011;38621;52.830;6.914;2022-09-28T16:00:29;2.80;;;1.40;;
52724;SDS011;38621;52.830;6.914;2022-09-28T16:08:20;2.92;;;1.27;;
52724;SDS011;38621;52.830;6.914;2022-09-28T16:11:14;2.83;;;1.00;;
52724;SDS011;38621;52.830;6.914;2022-09-28T16:13:59;3.08;;;1.00;;
52724;SDS011;38621;52.830;6.914;2022-09-28T16:16:45;2.55;;;1.00;;
52724;SDS011;38621;52.830;6.914;2022-09-28T16:19:29;2.60;;;1.05;;
52724;SDS011;38621;52.830;6.914;2022-09-28T16:24:35;1.75;;;1.08;;
52724;SDS011;38621;52.830;6.914;2022-09-28T16:29:34;3.78;;;1.33;;
52724;SDS011;38621;52.830;6.914;2022-09-28T16:37:38;2.97;;;1.30;;
52724;SDS011;38621;52.830;6.914;2022-09-28T16:40:07;2.15;;;1.00;;
52724;SDS011;38621;52.830;6.914;2022-09-28T16:42:34;1.80;;;1.10;;
52724;SDS011;38621;52.830;6.914;2022-09-28T16:45:04;1.90;;;1.17;;
52724;SDS011;38621;52.830;6.914;2022-09-28T16:47:31;1.63;;;0.93;;
52724;SDS011;38621;52.830;6.914;2022-09-28T16:50:04;4.70;;;1.52;;
52724;SDS011;38621;52.830;6.914;2022-09-28T16:52:31;2.47;;;1.20;;
52724;SDS011;38621;52.830;6.914;2022-09-28T16:55:15;2.60;;;1.20;;
52724;SDS011;38621;52.830;6.914;2022-09-28T16:57:42;1.98;;;1.23;;
52724;SDS011;38621;52.830;6.914;2022-09-28T17:02:44;2.92;;;1.38;;
52724;SDS011;38621;52.830;6.914;2022-09-28T17:05:10;2.00;;;1.30;;
52724;SDS011;38621;52.830;6.914;2022-09-28T17:07:37;2.30;;;1.45;;
52724;SDS011;38621;52.830;6.914;2022-09-28T17:10:16;2.63;;;1.60;;
52724;SDS011;38621;52.830;6.914;2022-09-28T17:12:48;2.75;;;1.80;;
52724;SDS011;38621;52.830;6.914;2022-09-28T17:15:14;3.67;;;2.80;;
52724;SDS011;38621;52.830;6.914;2022-09-28T17:17:42;3.58;;;2.97;;
52724;SDS011;38621;52.830;6.914;2022-09-28T17:20:29;3.17;;;2.20;;
52724;SDS011;38621;52.830;6.914;2022-09-28T17:22:55;3.22;;;2.33;;
52724;SDS011;38621;52.830;6.914;2022-09-28T17:25:21;3.20;;;2.15;;
52724;SDS011;38621;52.830;6.914;2022-09-28T17:27:49;3.33;;;1.95;;
52724;SDS011;38621;52.830;6.914;2022-09-28T17:30:18;2.45;;;1.30;;
52724;SDS011;38621;52.830;6.914;2022-09-28T17:32:44;2.33;;;1.30;;
52724;SDS011;38621;52.830;6.914;2022-09-28T17:35:11;2.20;;;1.20;;
52724;SDS011;38621;52.830;6.914;2022-09-28T17:37:38;2.40;;;1.20;;
52724;SDS011;38621;52.830;6.914;2022-09-28T17:40:25;2.25;;;1.38;;
52724;SDS011;38621;52.830;6.914;2022-09-28T17:42:52;3.03;;;1.60;;
52724;SDS011;38621;52.830;6.914;2022-09-28T17:45:20;2.60;;;1.77;;
52724;SDS011;38621;52.830;6.914;2022-09-28T17:47:46;2.67;;;1.30;;
52724;SDS011;38621;52.830;6.914;2022-09-28T17:50:28;1.70;;;1.10;;
52724;SDS011;38621;52.830;6.914;2022-09-28T17:55:31;2.80;;;1.70;;
52724;SDS011;38621;52.830;6.914;2022-09-28T17:57:59;5.15;;;1.70;;
52724;SDS011;38621;52.830;6.914;2022-09-28T18:00:26;5.88;;;1.35;;
52724;SDS011;38621;52.830;6.914;2022-09-28T18:02:53;3.13;;;1.40;;
52724;SDS011;38621;52.830;6.914;2022-09-28T18:05:20;4.18;;;1.10;;
52724;SDS011;38621;52.830;6.914;2022-09-28T18:07:47;11.52;;;1.73;;
52724;SDS011;38621;52.830;6.914;2022-09-28T18:10:14;44.88;;;4.72;;
52724;SDS011;38621;52.830;6.914;2022-09-28T18:12:43;4.97;;;1.90;;
52724;SDS011;38621;52.830;6.914;2022-09-28T18:15:09;63.60;;;6.22;;